Time;durP1;ratioP1;P1;durP2;ratioP2;P2;SDS_P1;SDS_P2;PMS_P1;PMS_P2;Temp;Humidity;BMP_temperature;BMP_pressure;BME280_temperature;BME280_humidity;BME280_pressure;Samples;Min_cycle;Max_cycle;Signal;HPM_P1;HPM_P2
2023/08/25 00:00:24;;;;;;;10.23;6.78;;;20.00;99.90;;;;;;4098549;28;20066;-66
2023/08/25 00:02:25;;;;;;;9.55;6.65;;;20.00;99.90;;;;;;4097520;28;20484;-65
2023/08/25 00:04:26;;;;;;;11.65;6.72;;;19.90;99.90;;;;;;4102181;28;20039;-64
2023/08/25 00:06:27;;;;;;;9.73;6.72;;;19.80;99.90;;;;;;4107431;28;20035;-65
2023/08/25 00:08:28;;;;;;;11.40;6.57;;;19.80;99.90;;;;;;4097852;28;20500;-64
2023/08/25 00:10:30;;;;;;;8.40;6.53;;;19.70;99.90;;;;;;4108629;28;20089;-65
2023/08/25 00:12:31;;;;;;;9.45;7.50;;;19.60;99.90;;;;;;4113124;28;20030;-65
2023/08/25 00:14:32;;;;;;;6.68;6.07;;;19.60;99.90;;;;;;4113479;28;20105;-65
2023/08/25 00:16:33;;;;;;;9.82;7.20;;;19.60;99.90;;;;;;4107920;28;20051;-65
2023/08/25 00:18:35;;;;;;;11.13;6.75;;;19.60;99.90;;;;;;4098751;28;20090;-64
2023/08/25 00:20:39;;;;;;;8.43;6.47;;;19.60;99.90;;;;;;4097723;28;20031;-65
2023/08/25 00:22:40;;;;;;;9.82;6.38;;;19.60;99.90;;;;;;4100484;28;20044;-64
2023/08/25 00:24:41;;;;;;;9.25;6.63;;;19.60;99.90;;;;;;4113141;28;20483;-63
2023/08/25 00:26:42;;;;;;;9.00;6.82;;;19.70;99.90;;;;;;4114186;28;20051;-65
2023/08/25 00:28:43;;;;;;;9.52;7.00;;;19.70;99.90;;;;;;4103363;28;20084;-64
2023/08/25 00:30:44;;;;;;;8.75;7.03;;;19.70;99.90;;;;;;4098476;28;20480;-65
2023/08/25 00:32:45;;;;;;;7.80;6.47;;;19.60;99.90;;;;;;4098316;28;20102;-65
2023/08/25 00:34:47;;;;;;;17.63;7.88;;;19.60;99.90;;;;;;4098146;29;20028;-65
2023/08/25 00:36:48;;;;;;;6.78;6.03;;;19.50;99.90;;;;;;4099039;28;20047;-65
2023/08/25 00:38:49;;;;;;;10.85;6.85;;;19.50;99.90;;;;;;4108642;28;20034;-64
2023/08/25 00:40:50;;;;;;;11.10;7.18;;;19.40;99.90;;;;;;4101635;28;20082;-64
2023/08/25 00:42:51;;;;;;;9.27;7.03;;;19.40;99.90;;;;;;4112993;28;20036;-64
2023/08/25 00:44:52;;;;;;;7.70;6.47;;;19.30;99.90;;;;;;4101494;28;20467;-64
2023/08/25 00:46:53;;;;;;;9.57;6.57;;;19.30;99.90;;;;;;4096709;28;20097;-62
2023/08/25 00:48:55;;;;;;;8.57;6.80;;;19.30;99.90;;;;;;4097975;28;20500;-64
2023/08/25 00:50:58;;;;;;;7.13;6.10;;;19.30;99.90;;;;;;4106324;28;20483;-66
2023/08/25 00:53:00;;;;;;;11.38;6.70;;;19.30;99.90;;;;;;4113049;28;20047;-63
2023/08/25 00:55:03;;;;;;;9.02;6.45;;;19.40;99.90;;;;;;4096840;29;20031;-62
2023/08/25 00:57:05;;;;;;;6.50;5.80;;;19.40;99.90;;;;;;4097902;29;20488;-63
2023/08/25 00:59:06;;;;;;;8.32;6.63;;;19.40;99.90;;;;;;4097610;28;20063;-64
2023/08/25 01:01:08;;;;;;;11.30;7.03;;;19.40;99.90;;;;;;4098395;28;20051;-65
2023/08/25 01:03:10;;;;;;;9.35;6.60;;;19.40;99.90;;;;;;4112800;28;20388;-65
2023/08/25 01:05:11;;;;;;;9.45;6.90;;;19.50;99.90;;;;;;4112969;28;20089;-58
2023/08/25 01:07:12;;;;;;;8.25;6.25;;;19.50;99.90;;;;;;4112473;28;20023;-59
2023/08/25 01:09:13;;;;;;;11.00;6.30;;;19.50;99.90;;;;;;4107157;28;20039;-59
2023/08/25 01:11:29;;;;;;;8.80;6.43;;;19.50;99.90;;;;;;4097289;28;20031;-61
2023/08/25 01:14:14;;;;;;;8.80;6.65;;;19.50;99.90;;;;;;4096790;28;20499;-60
2023/08/25 01:16:21;;;;;;;8.38;6.78;;;19.60;99.90;;;;;;4095350;29;20127;-60
2023/08/25 01:18:28;;;;;;;9.52;7.20;;;19.60;99.90;;;;;;4097637;28;20039;-60
2023/08/25 01:20:31;;;;;;;12.50;6.72;;;19.50;99.90;;;;;;4096339;28;20090;-60
2023/08/25 01:22:54;;;;;;;10.60;6.30;;;19.50;99.90;;;;;;4097137;28;20102;-60
2023/08/25 01:25:14;;;;;;;10.10;6.38;;;19.50;99.90;;;;;;4097347;28;20194;-60
2023/08/25 01:27:15;;;;;;;8.60;5.93;;;19.50;99.90;;;;;;4110731;28;20101;-60
2023/08/25 01:29:16;;;;;;;9.70;5.75;;;19.50;99.90;;;;;;4111972;28;20043;-61
2023/08/25 01:31:19;;;;;;;7.78;6.43;;;19.40;99.90;;;;;;4113228;28;20086;-61
2023/08/25 01:33:22;;;;;;;9.02;5.95;;;19.40;99.90;;;;;;4111771;28;20495;-59
2023/08/25 01:35:47;;;;;;;10.25;6.93;;;19.40;99.90;;;;;;4112580;28;20032;-61
2023/08/25 01:38:04;;;;;;;7.75;6.45;;;19.30;99.90;;;;;;4103898;28;20051;-61
2023/08/25 01:40:15;;;;;;;8.90;6.35;;;19.20;99.90;;;;;;4099418;28;20102;-60
2023/08/25 01:42:18;;;;;;;7.07;6.38;;;19.20;99.90;;;;;;4097238;28;20384;-59
2023/08/25 01:44:21;;;;;;;9.75;6.75;;;19.10;99.90;;;;;;4102685;28;20082;-61
2023/08/25 01:46:23;;;;;;;9.05;6.72;;;19.10;99.90;;;;;;4105408;28;20091;-61
2023/08/25 01:48:25;;;;;;;7.70;6.85;;;19.10;99.90;;;;;;4098075;28;20082;-61
2023/08/25 01:50:27;;;;;;;8.90;6.60;;;19.10;99.90;;;;;;4109099;28;20043;-59
2023/08/25 01:52:29;;;;;;;7.70;6.25;;;19.10;99.90;;;;;;4110065;28;20039;-60
2023/08/25 01:54:30;;;;;;;9.88;6.80;;;19.00;99.90;;;;;;4101441;28;20047;-62
2023/08/25 01:56:31;;;;;;;8.95;6.07;;;19.00;99.90;;;;;;4110155;28;20531;-60
2023/08/25 01:58:32;;;;;;;8.60;6.65;;;19.00;99.90;;;;;;4111046;28;20047;-64
2023/08/25 02:00:33;;;;;;;5.72;5.22;;;19.10;99.90;;;;;;4111386;28;20023;-58
2023/08/25 02:02:35;;;;;;;12.82;7.03;;;19.10;99.90;;;;;;4105277;28;20031;-60
2023/08/25 02:04:37;;;;;;;7.07;6.40;;;19.10;99.90;;;;;;4095757;28;20090;-61
2023/08/25 02:06:38;;;;;;;8.93;6.88;;;19.10;99.90;;;;;;4107012;28;20038;-60
2023/08/25 02:08:39;;;;;;;8.65;6.43;;;19.10;99.90;;;;;;4109898;28;20090;-60
2023/08/25 02:10:40;;;;;;;8.70;6.32;;;19.20;99.90;;;;;;4105039;28;20051;-61
2023/08/25 02:12:41;;;;;;;6.75;6.03;;;19.20;99.90;;;;;;4095733;28;20051;-62
2023/08/25 02:14:42;;;;;;;9.45;6.68;;;19.20;99.90;;;;;;4097729;28;20094;-61
2023/08/25 02:16:43;;;;;;;7.63;6.35;;;19.30;99.90;;;;;;4096572;28;20055;-63
2023/08/25 02:18:45;;;;;;;6.95;5.90;;;19.30;99.90;;;;;;4098343;28;20090;-62
2023/08/25 02:20:46;;;;;;;9.15;6.03;;;19.30;99.90;;;;;;4110622;28;20089;-59
2023/08/25 02:22:47;;;;;;;9.43;6.18;;;19.20;99.90;;;;;;4111995;28;20038;-60
2023/08/25 02:24:48;;;;;;;7.43;6.53;;;19.20;99.90;;;;;;4112262;28;20043;-60
2023/08/25 02:26:49;;;;;;;10.10;6.40;;;19.10;99.90;;;;;;4111126;28;20525;-60
2023/08/25 02:28:50;;;;;;;10.23;6.85;;;19.10;99.90;;;;;;4111709;28;20499;-61
2023/08/25 02:30:51;;;;;;;8.23;6.10;;;19.00;99.90;;;;;;4096109;28;20039;-60
2023/08/25 02:32:54;;;;;;;8.98;6.13;;;18.90;99.90;;;;;;4099584;28;20066;-59
2023/08/25 02:34:56;;;;;;;7.18;6.15;;;18.80;99.90;;;;;;4107362;28;20488;-61
2023/08/25 02:36:57;;;;;;;8.45;6.68;;;18.80;99.90;;;;;;4096175;28;20047;-62
2023/08/25 02:38:58;;;;;;;12.43;8.75;;;18.80;99.90;;;;;;4095757;28;20098;-61
2023/08/25 02:40:59;;;;;;;11.68;8.43;;;18.80;99.90;;;;;;4096527;28;20376;-64
2023/08/25 02:43:02;;;;;;;11.23;7.45;;;18.90;99.90;;;;;;4098303;28;20035;-63
2023/08/25 02:45:04;;;;;;;10.75;6.63;;;18.90;99.90;;;;;;4096609;28;20476;-65
2023/08/25 02:47:05;;;;;;;6.88;6.18;;;19.00;99.90;;;;;;4094918;28;20559;-65
2023/08/25 02:49:06;;;;;;;7.63;6.82;;;19.00;99.90;;;;;;4098528;28;20094;-64
2023/08/25 02:51:08;;;;;;;8.82;6.43;;;19.00;99.90;;;;;;4095413;28;20066;-64
2023/08/25 02:53:09;;;;;;;7.82;6.40;;;18.90;99.90;;;;;;4108976;28;20089;-63
2023/08/25 02:55:14;;;;;;;9.88;6.95;;;18.90;99.90;;;;;;4100643;28;20039;-63
2023/08/25 02:57:15;;;;;;;8.93;6.70;;;19.00;99.90;;;;;;4095639;29;20032;-65
2023/08/25 02:59:16;;;;;;;7.13;6.00;;;19.00;99.90;;;;;;4095686;29;20109;-64
2023/08/25 03:01:17;;;;;;;7.63;5.93;;;19.00;99.90;;;;;;4096099;28;20031;-66
2023/08/25 03:03:18;;;;;;;8.77;5.70;;;18.90;99.90;;;;;;4096206;28;20040;-63
2023/08/25 03:05:21;;;;;;;7.85;6.47;;;18.90;99.90;;;;;;4095044;28;20458;-63
2023/08/25 03:07:22;;;;;;;7.15;5.97;;;18.80;99.90;;;;;;4097014;28;20047;-64
2023/08/25 03:09:24;;;;;;;8.77;6.85;;;18.70;99.90;;;;;;4095045;28;20075;-64
2023/08/25 03:11:25;;;;;;;9.48;6.70;;;18.70;99.90;;;;;;4098629;28;20087;-63
2023/08/25 03:13:26;;;;;;;8.55;6.05;;;18.60;99.90;;;;;;4102776;28;20070;-64
2023/08/25 03:15:27;;;;;;;9.05;6.90;;;18.60;99.90;;;;;;4112053;28;20035;-64
2023/08/25 03:17:28;;;;;;;9.95;6.80;;;18.60;99.90;;;;;;4110388;28;20051;-60
2023/08/25 03:19:29;;;;;;;7.43;6.03;;;18.60;99.90;;;;;;4110259;28;20093;-65
2023/08/25 03:21:30;;;;;;;12.30;7.88;;;18.70;99.90;;;;;;4110585;28;20828;-62
2023/08/25 03:23:32;;;;;;;10.05;7.28;;;18.60;99.90;;;;;;4101677;28;20036;-65
2023/08/25 03:25:37;;;;;;;8.30;6.32;;;18.60;99.90;;;;;;4106199;28;20102;-64
2023/08/25 03:27:38;;;;;;;8.82;7.00;;;18.60;99.90;;;;;;4106822;28;20027;-65
2023/08/25 03:29:42;;;;;;;7.20;5.80;;;18.60;99.90;;;;;;4109353;28;20031;-64
2023/08/25 03:31:43;;;;;;;11.15;6.90;;;18.60;99.90;;;;;;4099377;28;20047;-65
2023/08/25 03:33:44;;;;;;;10.85;6.32;;;18.50;99.90;;;;;;4102164;28;20538;-64
2023/08/25 03:35:45;;;;;;;19.55;7.93;;;18.50;99.90;;;;;;4102836;28;20086;-65
2023/08/25 03:37:47;;;;;;;6.90;6.20;;;18.60;99.90;;;;;;4099679;29;20074;-64
2023/08/25 03:39:49;;;;;;;9.27;6.32;;;18.50;99.90;;;;;;4098633;29;20027;-65
2023/08/25 03:41:50;;;;;;;11.10;7.15;;;18.60;99.90;;;;;;4099215;28;20098;-65
2023/08/25 03:43:51;;;;;;;7.53;6.70;;;18.50;99.90;;;;;;4098077;29;20369;-65
2023/08/25 03:45:52;;;;;;;9.07;6.93;;;18.50;99.90;;;;;;4100833;28;20472;-64
2023/08/25 03:47:53;;;;;;;9.23;7.22;;;18.50;99.90;;;;;;4113360;28;20046;-63
2023/08/25 03:49:54;;;;;;;9.73;7.43;;;18.40;99.90;;;;;;4114887;28;20047;-64
2023/08/25 03:51:58;;;;;;;8.85;6.60;;;18.40;99.90;;;;;;4113376;28;20038;-63
2023/08/25 03:53:59;;;;;;;8.60;7.38;;;18.40;99.90;;;;;;4109109;28;20059;-64
2023/08/25 03:56:00;;;;;;;9.93;6.57;;;18.50;99.90;;;;;;4097929;29;20035;-65
2023/08/25 03:58:02;;;;;;;11.55;7.47;;;18.60;99.90;;;;;;4098033;29;20070;-65
2023/08/25 04:00:04;;;;;;;31.67;15.73;;;18.80;99.90;;;;;;4098177;28;20035;-64
2023/08/25 04:02:05;;;;;;;12.15;6.35;;;19.00;99.90;;;;;;4097339;29;20181;-68
2023/08/25 04:04:06;;;;;;;9.13;6.30;;;19.20;99.90;;;;;;4104295;28;20038;-65
2023/08/25 04:06:08;;;;;;;12.60;6.70;;;19.40;99.90;;;;;;4109862;28;20105;-66
2023/08/25 04:08:09;;;;;;;12.23;7.70;;;19.50;99.90;;;;;;4101583;28;20031;-65
2023/08/25 04:10:10;;;;;;;8.85;6.43;;;19.70;99.90;;;;;;4113378;28;20043;-63
2023/08/25 04:12:11;;;;;;;8.27;5.97;;;20.00;99.90;;;;;;4114006;28;20101;-62
2023/08/25 04:14:12;;;;;;;8.98;6.53;;;20.20;99.90;;;;;;4113015;28;20472;-65
2023/08/25 04:16:13;;;;;;;9.73;6.03;;;20.30;99.90;;;;;;4114296;28;20039;-61
2023/08/25 04:18:15;;;;;;;7.10;6.40;;;20.50;99.90;;;;;;4113152;28;20038;-65
2023/08/25 04:20:16;;;;;;;9.13;6.30;;;20.70;99.90;;;;;;4112595;28;20081;-63
2023/08/25 04:22:17;;;;;;;9.07;6.28;;;21.00;99.90;;;;;;4113336;28;20027;-65
2023/08/25 04:24:19;;;;;;;10.63;6.30;;;21.20;99.90;;;;;;4110063;28;20570;-62
2023/08/25 04:26:20;;;;;;;10.02;6.22;;;21.50;99.90;;;;;;4098217;28;20023;-65
2023/08/25 04:28:21;;;;;;;6.80;5.80;;;22.00;99.90;;;;;;4097368;29;20035;-59
2023/08/25 04:30:22;;;;;;;6.97;6.03;;;22.40;99.90;;;;;;4097351;29;20051;-64
2023/08/25 04:32:24;;;;;;;9.93;5.20;;;22.80;99.90;;;;;;4097167;28;20043;-65
2023/08/25 04:34:25;;;;;;;6.43;5.15;;;23.30;99.90;;;;;;4097609;29;20027;-60
2023/08/25 04:36:26;;;;;;;9.38;5.55;;;23.70;99.90;;;;;;4096573;28;20444;-63
2023/08/25 04:38:27;;;;;;;8.85;5.28;;;24.00;99.90;;;;;;4099666;28;20042;-65
2023/08/25 04:40:28;;;;;;;8.55;5.90;;;24.20;99.90;;;;;;4106760;28;20031;-62
2023/08/25 04:42:29;;;;;;;8.35;6.00;;;24.20;99.90;;;;;;4098115;29;20491;-65
2023/08/25 04:44:31;;;;;;;15.05;6.60;;;24.50;99.90;;;;;;4096681;28;20074;-60
2023/08/25 04:46:32;;;;;;;8.70;5.57;;;24.70;99.90;;;;;;4098064;28;20043;-66
2023/08/25 04:48:33;;;;;;;13.75;5.90;;;25.10;99.90;;;;;;4103731;28;20376;-65
2023/08/25 04:50:34;;;;;;;11.10;6.28;;;25.50;99.90;;;;;;4112773;28;20093;-63
2023/08/25 04:52:36;;;;;;;11.27;6.03;;;25.90;99.90;;;;;;4099221;28;20083;-62
2023/08/25 04:54:37;;;;;;;10.90;5.97;;;26.20;99.90;;;;;;4096860;29;20146;-66
2023/08/25 04:56:38;;;;;;;12.15;6.53;;;26.50;99.90;;;;;;4096451;28;20098;-61
2023/08/25 04:58:39;;;;;;;11.18;6.50;;;26.20;99.90;;;;;;4098107;28;20094;-60
2023/08/25 05:00:41;;;;;;;12.05;5.80;;;26.10;99.90;;;;;;4096656;28;20031;-60
2023/08/25 05:02:42;;;;;;;10.93;6.82;;;26.30;99.90;;;;;;4096856;28;20039;-60
2023/08/25 05:04:43;;;;;;;6.90;5.95;;;26.80;99.90;;;;;;4097093;28;20035;-59
2023/08/25 05:06:45;;;;;;;11.18;6.75;;;27.30;99.90;;;;;;4096875;28;20091;-61
2023/08/25 05:08:46;;;;;;;8.73;6.15;;;27.90;99.90;;;;;;4097626;28;20043;-59
2023/08/25 05:10:47;;;;;;;9.35;6.63;;;28.30;99.90;;;;;;4096583;28;20043;-61
2023/08/25 05:12:49;;;;;;;11.25;6.43;;;28.40;99.90;;;;;;4097111;28;20535;-60
2023/08/25 05:14:50;;;;;;;13.07;7.13;;;28.60;99.90;;;;;;4095871;28;20090;-58
2023/08/25 05:16:51;;;;;;;11.23;7.13;;;28.80;99.90;;;;;;4097327;29;20098;-60
2023/08/25 05:18:52;;;;;;;14.95;6.50;;;29.10;99.90;;;;;;4096282;28;20130;-59
2023/08/25 05:21:00;;;;;;;11.35;6.63;;;29.30;99.90;;;;;;4097245;29;20091;-63
2023/08/25 05:23:01;;;;;;;10.65;6.07;;;29.70;99.90;;;;;;4095677;28;20043;-62
2023/08/25 05:25:03;;;;;;;10.65;6.05;;;29.80;99.90;;;;;;4097237;29;20464;-61
2023/08/25 05:27:04;;;;;;;8.15;4.72;;;30.00;99.90;;;;;;4096060;28;20039;-60
2023/08/25 05:29:05;;;;;;;4.88;4.22;;;30.10;99.90;;;;;;4096812;28;20039;-58
2023/08/25 05:31:08;;;;;;;5.70;4.28;;;30.30;99.90;;;;;;4095943;28;20114;-60
2023/08/25 05:33:11;;;;;;;5.10;4.05;;;30.70;99.90;;;;;;4096245;28;20106;-59
2023/08/25 05:35:12;;;;;;;5.03;4.63;;;30.70;99.40;;;;;;4096730;29;20058;-60
2023/08/25 05:37:14;;;;;;;6.00;3.95;;;30.80;99.10;;;;;;4096100;28;20130;-62
2023/08/25 05:39:18;;;;;;;5.18;4.25;;;31.00;98.80;;;;;;4097234;29;20317;-62
2023/08/25 05:41:19;;;;;;;6.65;4.68;;;31.20;98.40;;;;;;4096074;29;20043;-64
2023/08/25 05:43:20;;;;;;;5.07;3.97;;;31.20;98.00;;;;;;4096953;29;20028;-60
2023/08/25 05:45:21;;;;;;;4.50;3.92;;;31.30;97.60;;;;;;4095315;28;20047;-65
2023/08/25 05:47:22;;;;;;;4.50;4.10;;;31.60;97.30;;;;;;4097267;29;20145;-65
2023/08/25 05:49:24;;;;;;;7.75;4.15;;;32.10;96.70;;;;;;4095632;28;20431;-64
2023/08/25 05:51:25;;;;;;;6.32;4.20;;;32.20;96.10;;;;;;4096697;28;20039;-66
2023/08/25 05:53:27;;;;;;;5.57;4.10;;;32.30;95.80;;;;;;4095870;29;20043;-63
2023/08/25 05:55:28;;;;;;;4.15;3.75;;;32.60;95.60;;;;;;4096028;28;20709;-64
2023/08/25 05:57:29;;;;;;;4.50;3.78;;;33.00;95.00;;;;;;4095478;29;20047;-63
2023/08/25 05:59:34;;;;;;;4.68;4.22;;;33.20;94.50;;;;;;4096591;28;20385;-63
2023/08/25 06:01:35;;;;;;;5.68;3.80;;;32.90;94.10;;;;;;4095883;29;20035;-64
2023/08/25 06:03:36;;;;;;;8.77;3.88;;;32.80;94.10;;;;;;4096281;28;20035;-63
2023/08/25 06:05:37;;;;;;;6.97;3.40;;;32.80;94.00;;;;;;4096068;29;20138;-63
2023/08/25 06:07:39;;;;;;;6.97;4.07;;;33.10;93.70;;;;;;4096069;29;20102;-64
2023/08/25 06:09:40;;;;;;;4.60;4.20;;;33.50;93.30;;;;;;4096905;29;20027;-65
2023/08/25 06:11:41;;;;;;;9.13;4.10;;;33.60;92.90;;;;;;4095769;29;20027;-65
2023/08/25 06:13:43;;;;;;;9.73;4.03;;;33.70;92.70;;;;;;4096669;28;20043;-63
2023/08/25 06:15:44;;;;;;;7.88;3.80;;;33.70;92.40;;;;;;4095400;28;20114;-65
2023/08/25 06:17:45;;;;;;;4.35;3.95;;;33.20;92.30;;;;;;4096361;28;20121;-64
2023/08/25 06:19:47;;;;;;;6.70;6.00;;;33.30;92.40;;;;;;4095395;29;20515;-66
2023/08/25 06:21:50;;;;;;;7.95;4.47;;;33.30;92.30;;;;;;4096604;29;20086;-66
2023/08/25 06:23:51;;;;;;;8.00;3.78;;;33.20;92.20;;;;;;4095524;29;20027;-65
2023/08/25 06:25:52;;;;;;;5.90;4.35;;;32.90;92.20;;;;;;4096144;28;20122;-65
2023/08/25 06:27:54;;;;;;;6.53;4.50;;;32.60;92.20;;;;;;4095203;29;20043;-65
2023/08/25 06:29:55;;;;;;;3.90;3.47;;;32.30;92.30;;;;;;4096477;29;20027;-65
2023/08/25 06:31:57;;;;;;;4.15;3.72;;;32.00;92.40;;;;;;4095398;28;20389;-65
2023/08/25 06:33:58;;;;;;;4.70;4.05;;;31.60;92.50;;;;;;4095952;28;20039;-66
2023/08/25 06:35:59;;;;;;;6.13;4.60;;;31.40;92.80;;;;;;4095685;28;20066;-63
2023/08/25 06:38:02;;;;;;;4.97;3.72;;;31.20;92.90;;;;;;4095673;29;20047;-63
2023/08/25 06:40:05;;;;;;;7.30;3.83;;;31.50;93.00;;;;;;4096119;29;20432;-66
2023/08/25 06:42:06;;;;;;;5.28;3.85;;;31.80;92.60;;;;;;4095207;28;20054;-60
2023/08/25 06:44:07;;;;;;;4.22;3.47;;;31.90;92.30;;;;;;4095834;29;20083;-56
2023/08/25 06:46:08;;;;;;;4.13;3.17;;;31.90;92.20;;;;;;4095247;29;20039;-65
2023/08/25 06:48:09;;;;;;;7.00;4.50;;;32.10;92.30;;;;;;4096111;28;20043;-64
2023/08/25 06:50:10;;;;;;;5.43;4.50;;;32.00;92.00;;;;;;4094543;28;20492;-66
2023/08/25 06:52:12;;;;;;;6.88;4.43;;;31.90;92.10;;;;;;4096083;28;20058;-65
2023/08/25 06:54:13;;;;;;;6.70;3.78;;;31.70;91.90;;;;;;4093412;29;20039;-67
2023/08/25 06:56:14;;;;;;;6.32;4.20;;;31.10;92.30;;;;;;4096273;29;20368;-65
2023/08/25 06:58:15;;;;;;;8.70;4.38;;;30.60;92.60;;;;;;4094494;28;20055;-62
2023/08/25 07:00:20;;;;;;;6.40;4.45;;;30.30;93.00;;;;;;4096218;29;20031;-66
2023/08/25 07:02:21;;;;;;;4.97;4.45;;;30.00;93.20;;;;;;4095107;29;20039;-66
2023/08/25 07:04:22;;;;;;;7.60;4.20;;;30.20;93.40;;;;;;4095147;28;20031;-66
2023/08/25 07:06:23;;;;;;;4.20;3.80;;;30.30;93.50;;;;;;4095488;28;20035;-66
2023/08/25 07:08:25;;;;;;;7.38;4.65;;;30.70;93.40;;;;;;4098823;28;20133;-64
2023/08/25 07:10:26;;;;;;;9.70;4.97;;;31.30;93.00;;;;;;4099193;28;20114;-66
2023/08/25 07:12:27;;;;;;;11.98;4.78;;;31.80;92.50;;;;;;4098574;29;20028;-62
2023/08/25 07:14:30;;;;;;;9.13;4.57;;;32.10;92.30;;;;;;4098575;28;20043;-64
2023/08/25 07:16:32;;;;;;;10.68;4.95;;;32.20;92.20;;;;;;4098097;28;20047;-63
2023/08/25 07:18:33;;;;;;;9.05;5.10;;;31.90;92.00;;;;;;4098452;28;20047;-63
2023/08/25 07:20:34;;;;;;;12.05;5.05;;;31.60;92.20;;;;;;4097941;29;20036;-66
2023/08/25 07:22:35;;;;;;;17.17;5.63;;;31.40;92.20;;;;;;4099143;28;20114;-65
2023/08/25 07:24:36;;;;;;;13.40;5.30;;;30.60;92.70;;;;;;4098225;29;20035;-63
2023/08/25 07:26:37;;;;;;;18.65;5.53;;;29.90;93.20;;;;;;4098754;28;20039;-67
2023/08/25 07:28:38;;;;;;;9.93;4.30;;;30.00;93.50;;;;;;4097263;28;20114;-65
2023/08/25 07:30:40;;;;;;;12.48;4.50;;;30.40;93.20;;;;;;4098697;29;20543;-65
2023/08/25 07:32:41;;;;;;;10.02;4.57;;;31.00;92.70;;;;;;4097428;28;20043;-65
2023/08/25 07:34:48;;;;;;;10.23;4.20;;;31.40;92.20;;;;;;4098697;29;20094;-67
2023/08/25 07:36:49;;;;;;;7.35;4.05;;;31.30;92.20;;;;;;4097629;29;20510;-66
2023/08/25 07:38:50;;;;;;;8.75;4.20;;;31.30;92.20;;;;;;4098063;28;20047;-60
2023/08/25 07:40:51;;;;;;;5.00;3.67;;;31.30;92.00;;;;;;4098215;29;20476;-61
2023/08/25 07:42:58;;;;;;;18.30;5.00;;;31.20;92.00;;;;;;4097772;28;20101;-61
2023/08/25 07:44:59;;;;;;;11.32;4.68;;;31.20;92.10;;;;;;4097538;28;20440;-64
2023/08/25 07:47:00;;;;;;;5.22;3.80;;;30.90;92.20;;;;;;4097537;28;20079;-64
2023/08/25 07:49:01;;;;;;;13.40;5.55;;;31.10;92.30;;;;;;4098334;29;20121;-58
2023/08/25 07:51:02;;;;;;;9.27;4.72;;;31.00;92.10;;;;;;4097186;28;20477;-61
2023/08/25 07:53:04;;;;;;;10.93;4.88;;;30.50;92.20;;;;;;4098335;28;20043;-63
2023/08/25 07:55:05;;;;;;;8.30;4.63;;;30.10;92.60;;;;;;4097033;28;20429;-62
2023/08/25 07:57:07;;;;;;;9.93;4.30;;;29.90;92.90;;;;;;4098437;28;20448;-60
2023/08/25 07:59:08;;;;;;;7.00;4.80;;;29.90;93.10;;;;;;4096949;28;20080;-60
2023/08/25 08:01:11;;;;;;;8.23;4.15;;;29.90;93.10;;;;;;4098385;29;20027;-60
2023/08/25 08:03:13;;;;;;;8.13;4.28;;;29.80;93.20;;;;;;4097239;28;20425;-65
2023/08/25 08:05:16;;;;;;;7.25;4.35;;;29.50;93.40;;;;;;4098271;28;20047;-65
2023/08/25 08:07:18;;;;;;;9.50;4.40;;;29.60;93.60;;;;;;4096553;28;20107;-61
2023/08/25 08:09:19;;;;;;;8.32;5.03;;;29.70;93.60;;;;;;4098112;28;20058;-66
2023/08/25 08:11:20;;;;;;;11.40;4.95;;;29.70;93.40;;;;;;4097112;28;20487;-65
2023/08/25 08:13:21;;;;;;;10.60;3.85;;;29.80;93.50;;;;;;4097547;29;20047;-66
2023/08/25 08:15:23;;;;;;;5.93;4.18;;;30.10;93.20;;;;;;4097228;28;20039;-66
2023/08/25 08:17:25;;;;;;;7.03;4.07;;;30.40;92.90;;;;;;4097363;29;20035;-60
2023/08/25 08:19:26;;;;;;;7.38;4.57;;;30.70;92.60;;;;;;4096725;28;20551;-66
2023/08/25 08:21:27;;;;;;;4.75;4.18;;;30.80;92.40;;;;;;4096503;28;20098;-65
2023/08/25 08:23:29;;;;;;;9.38;4.00;;;30.60;92.30;;;;;;4098231;28;20448;-65
2023/08/25 08:25:30;;;;;;;7.38;4.07;;;30.70;92.40;;;;;;4096864;29;20031;-65
2023/08/25 08:27:31;;;;;;;10.32;4.70;;;30.90;92.30;;;;;;4097839;28;20040;-65
2023/08/25 08:29:32;;;;;;;8.57;3.42;;;31.10;92.00;;;;;;4096720;28;20044;-60
2023/08/25 08:31:33;;;;;;;7.40;4.22;;;31.10;91.80;;;;;;4097945;28;20039;-61
2023/08/25 08:33:34;;;;;;;6.45;4.03;;;30.90;91.40;;;;;;4096878;29;20031;-61
2023/08/25 08:35:36;;;;;;;4.28;3.85;;;30.60;91.10;;;;;;4097939;28;20098;-60
2023/08/25 08:37:39;;;;;;;6.93;4.47;;;30.60;91.10;;;;;;4096097;28;20031;-62
2023/08/25 08:39:40;;;;;;;11.32;3.70;;;30.80;90.90;;;;;;4097161;28;20044;-61
2023/08/25 08:41:44;;;;;;;6.78;3.95;;;30.80;90.90;;;;;;4097374;29;20098;-60
2023/08/25 08:43:45;;;;;;;8.50;3.88;;;30.90;90.90;;;;;;4096949;28;20047;-59
2023/08/25 08:45:51;;;;;;;6.82;3.78;;;30.60;90.60;;;;;;4097178;29;20086;-60
2023/08/25 08:47:53;;;;;;;5.45;4.15;;;30.40;90.60;;;;;;4097155;28;20043;-60
2023/08/25 08:49:56;;;;;;;5.22;4.07;;;30.30;90.70;;;;;;4096753;28;20392;-61
2023/08/25 08:51:58;;;;;;;4.15;3.42;;;30.50;90.80;;;;;;4096556;28;20043;-60
2023/08/25 08:54:04;;;;;;;8.60;3.50;;;30.60;90.30;;;;;;4097362;29;20455;-61
2023/08/25 08:56:07;;;;;;;3.90;3.50;;;30.90;89.80;;;;;;4096153;28;20094;-61
2023/08/25 08:58:08;;;;;;;6.60;3.25;;;30.90;89.60;;;;;;4097122;28;20570;-57
2023/08/25 09:00:12;;;;;;;5.55;3.70;;;31.00;89.50;;;;;;4096610;29;20098;-60
2023/08/25 09:02:15;;;;;;;7.35;3.70;;;31.10;89.20;;;;;;4097260;28;20094;-59
2023/08/25 09:04:22;;;;;;;9.32;4.00;;;31.30;89.00;;;;;;4096548;29;20118;-61
2023/08/25 09:06:23;;;;;;;5.32;3.72;;;31.50;87.60;;;;;;4097507;29;20051;-60
2023/08/25 09:08:25;;;;;;;4.43;3.80;;;31.60;86.70;;;;;;4096028;28;20039;-60
2023/08/25 09:10:27;;;;;;;4.80;3.60;;;31.40;85.90;;;;;;4097110;28;20051;-60
2023/08/25 09:12:29;;;;;;;4.88;3.25;;;31.30;86.00;;;;;;4096423;29;20032;-60
2023/08/25 09:14:31;;;;;;;8.18;3.63;;;31.10;85.30;;;;;;4096881;28;20621;-59
2023/08/25 09:16:33;;;;;;;5.80;3.58;;;31.20;85.00;;;;;;4095844;28;20035;-60
2023/08/25 09:18:34;;;;;;;5.93;3.67;;;31.20;84.80;;;;;;4096591;28;20157;-60
2023/08/25 09:20:40;;;;;;;5.65;3.67;;;31.20;84.50;;;;;;4095814;28;20047;-60
2023/08/25 09:22:47;;;;;;;6.97;4.25;;;31.40;84.40;;;;;;4096404;28;20035;-60
2023/08/25 09:24:48;;;;;;;5.18;3.53;;;31.50;84.80;;;;;;4096150;29;20028;-60
2023/08/25 09:26:50;;;;;;;3.92;3.55;;;31.70;84.70;;;;;;4096543;28;20094;-59
2023/08/25 09:28:53;;;;;;;4.15;3.38;;;31.90;83.70;;;;;;4096305;29;20121;-61
2023/08/25 09:30:54;;;;;;;6.65;3.55;;;31.90;82.60;;;;;;4094374;28;20552;-62
2023/08/25 09:33:06;;;;;;;5.90;4.03;;;31.80;82.80;;;;;;4096745;28;20389;-61
2023/08/25 09:35:12;;;;;;;4.13;3.47;;;31.60;81.40;;;;;;4096034;28;20031;-60
2023/08/25 09:37:13;;;;;;;4.10;3.28;;;31.30;82.20;;;;;;4096504;28;20500;-61
2023/08/25 09:39:14;;;;;;;3.38;3.08;;;31.30;81.90;;;;;;4095244;28;20047;-61
2023/08/25 09:41:29;;;;;;;3.97;3.53;;;31.00;81.50;;;;;;4096811;29;20365;-60
2023/08/25 09:43:30;;;;;;;4.03;3.65;;;31.20;81.70;;;;;;4095513;29;20039;-62
2023/08/25 09:45:33;;;;;;;3.28;2.92;;;31.20;82.30;;;;;;4095189;29;20078;-60
2023/08/25 09:47:35;;;;;;;9.75;2.67;;;31.40;82.10;;;;;;4093635;29;20048;-62
2023/08/25 09:49:39;;;;;;;4.85;3.00;;;31.70;80.30;;;;;;4096601;28;20039;-61
2023/08/25 09:51:42;;;;;;;3.63;3.03;;;31.90;78.90;;;;;;4095864;29;20078;-60
2023/08/25 09:53:48;;;;;;;8.57;3.20;;;32.00;77.60;;;;;;4096662;29;20036;-62
2023/08/25 09:55:50;;;;;;;4.45;3.17;;;31.90;76.80;;;;;;4095506;29;20044;-65
2023/08/25 09:57:52;;;;;;;4.50;2.80;;;31.90;76.80;;;;;;4095917;28;20114;-63
2023/08/25 09:59:54;;;;;;;6.75;3.08;;;31.90;76.60;;;;;;4095497;28;20074;-60
2023/08/25 10:01:57;;;;;;;7.47;3.38;;;32.00;76.50;;;;;;4096705;28;20118;-63
2023/08/25 10:03:58;;;;;;;4.65;2.58;;;32.00;76.30;;;;;;4095595;29;20035;-60
2023/08/25 10:06:01;;;;;;;3.05;2.75;;;32.00;75.70;;;;;;4096113;28;20090;-62
2023/08/25 10:08:02;;;;;;;3.95;3.42;;;31.80;73.90;;;;;;4095622;29;20031;-59
2023/08/25 10:10:04;;;;;;;5.13;2.65;;;31.70;73.50;;;;;;4095888;28;20097;-65
2023/08/25 10:12:08;;;;;;;6.55;3.30;;;31.70;73.20;;;;;;4096280;29;20067;-60
2023/08/25 10:14:11;;;;;;;3.70;2.85;;;31.70;72.80;;;;;;4095532;28;20043;-62
2023/08/25 10:16:13;;;;;;;3.40;2.80;;;31.40;72.50;;;;;;4096153;29;20031;-61
2023/08/25 10:18:14;;;;;;;8.65;3.38;;;31.40;73.00;;;;;;4094754;28;20055;-55
2023/08/25 10:20:18;;;;;;;4.78;3.00;;;31.60;73.40;;;;;;4096660;29;20023;-61
2023/08/25 10:22:20;;;;;;;4.88;2.95;;;31.70;73.60;;;;;;4095381;29;20546;-61
2023/08/25 10:24:23;;;;;;;2.95;2.50;;;31.70;73.20;;;;;;4096009;28;20412;-61
2023/08/25 10:26:25;;;;;;;5.65;2.38;;;31.90;72.50;;;;;;4095078;29;20389;-61
2023/08/25 10:28:26;;;;;;;3.35;3.03;;;31.70;71.60;;;;;;4096229;29;20035;-63
2023/08/25 10:30:29;;;;;;;7.78;2.97;;;31.40;71.20;;;;;;4095163;28;20090;-61
2023/08/25 10:32:55;;;;;;;2.60;2.40;;;31.20;70.90;;;;;;4096221;29;20079;-60
2023/08/25 10:34:57;;;;;;;4.82;2.70;;;31.00;69.70;;;;;;4095072;29;20035;-61